Terminal Aerodrome Forecast
Issued by NWS Cleveland, OH

Home | Current Version | Previous Version | Text Only | Print | Product List | Glossary On
Versions: 1 2 3 4 5 6 7 8 9 10 11 12 13 14 15 16 17 18 19 20 21
000
FTUS41 KCLE 190500
TAFYNG
TAF
KYNG 190520Z 1906/2006 00000KT P6SM SKC
     FM190800 10004KT 4SM BR SCT250
      TEMPO 1909/1913 1SM BR
     FM191400 12006KT P6SM SCT050
     FM200000 VRB03KT P6SM SKC
     FM200400 15008KT P6SM SKC=

USA.gov is the U.S. government's official web portal to all federal, state and local government web resources and services.